MSC Sinfonia — H8XH — position and weather

sailwx.info

Track history (hours):
 
Tides and Currents Weather Stations Pressure Air Temp Water Temp Dewpoint Dewpoint Depression Visibility Wind Speed Wind Dir Waves Ship Positions

MSC Sinfonia

Last reported at 2015-Apr-17 22:11 UTC. Time now 2015-Apr-19 09:20 UTC.
Position N 36°08' W 008°51'.

Length 251 m; draft 6.8 m.

Type: Passenger vessel. MMSI: 356715971.

Date/timePositionNaut miles runAvg speedWind from/ knotsBaromVisibWave heightAir tempDewpointWater temp
2015-Apr-17 22:11N 36°08' W 008°51'1320.6
2015-Apr-17 21:33N 36°19' W 008°58'12419.5
2015-Apr-17 15:11N 38°16' W 009°50'1320.4
2015-Apr-17 14:34N 38°25' W 009°38'2019.8
2015-Apr-17 13:32N 38°39' W 009°20'1010.4
2015-Apr-17 12:33N 38°42' W 009°07'0 0.2
2015-Apr-17 11:28N 38°43' W 009°08'0 0.0
2015-Apr-17 10:31N 38°43' W 009°08'0 0.0
2015-Apr-17 09:31N 38°43' W 009°08'0 0.0
2015-Apr-17 08:31N 38°43' W 009°08'0 0.0
2015-Apr-17 07:31N 38°43' W 009°08'0 0.0
2015-Apr-17 06:31N 38°43' W 009°08'0 0.0
2015-Apr-17 05:31N 38°43' W 009°08'0 0.0
2015-Apr-17 04:31N 38°43' W 009°08'0 0.0
2015-Apr-17 03:28N 38°43' W 009°08'0 0.0
2015-Apr-17 02:31N 38°43' W 009°08'0 0.0
2015-Apr-17 01:31N 38°43' W 009°08'0 0.0
2015-Apr-17 00:31N 38°43' W 009°08'0 0.0
2015-Apr-16 23:28N 38°43' W 009°08'0 0.0
2015-Apr-16 22:31N 38°43' W 009°08'0 0.0
2015-Apr-16 21:31N 38°43' W 009°08'0 0.0
2015-Apr-16 20:31N 38°43' W 009°08'0 0.0
2015-Apr-16 19:31N 38°43' W 009°08'0 0.0
2015-Apr-16 18:31N 38°43' W 009°08'0 0.0
2015-Apr-16 17:31N 38°43' W 009°08'0 0.0
2015-Apr-16 16:31N 38°43' W 009°08'0 0.0
2015-Apr-16 15:31N 38°43' W 009°08'0 0.0
2015-Apr-16 14:31N 38°43' W 009°08'0 0.0
2015-Apr-16 13:25N 38°43' W 009°08'0 0.0
2015-Apr-16 12:31N 38°43' W 009°08'0 0.0
2015-Apr-16 11:31N 38°43' W 009°08'0 0.0
2015-Apr-16 10:31N 38°43' W 009°08'0 0.0
2015-Apr-16 09:31N 38°43' W 009°08'0 0.0
2015-Apr-16 08:31N 38°43' W 009°08'0 0.0
2015-Apr-16 07:31N 38°43' W 009°08'6 5.8
2015-Apr-16 06:33N 38°41' W 009°14'1313.2
2015-Apr-16 05:33N 38°30' W 009°23'1817.7
2015-Apr-16 04:32N 38°12' W 009°22'1717.1
2015-Apr-16 03:33N 37°55' W 009°22'220 9.4
2015-Apr-15 04:15N 35°60' W 005°27'913.4
2015-Apr-15 03:33N 36°02' W 005°16'22615.7
2015-Apr-14 13:07N 37°36' W 000°59'0 0.0
2015-Apr-14 12:29N 37°36' W 000°59'0 0.0
2015-Apr-14 05:33N 37°36' W 000°59'4 4.1
2015-Apr-14 04:28N 37°31' W 000°59'1112.0
2015-Apr-14 03:33N 37°32' W 000°45'1211.9
2015-Apr-14 02:33N 37°37' W 000°31'1313.0
2015-Apr-14 01:32N 37°47' W 000°20'1713.4
2015-Apr-14 00:17N 37°59' W 000°05'1313.2
2015-Apr-13 23:17N 38°09' E 000°06'1013.8
2015-Apr-13 22:33N 38°16' E 000°14'1714.7
2015-Apr-13 21:23N 38°29' E 000°29'8516.5
2015-Apr-13 16:15N 39°31' E 001°44'1918.5
2015-Apr-13 15:14N 39°43' E 002°03'1218.0
2015-Apr-13 14:33N 39°51' E 002°14'1818.0
2015-Apr-13 13:33N 40°03' E 002°32'1818.3
2015-Apr-13 12:33N 40°16' E 002°50'1918.5
2015-Apr-13 11:33N 40°28' E 003°08'1818.3
2015-Apr-13 10:33N 40°40' E 003°26'2518.5
2015-Apr-13 09:11N 40°57' E 003°51'3218.2
2015-Apr-13 07:24N 41°19' E 004°23'2822.6
2015-Apr-13 06:09N 41°38' E 004°51'711.0
2015-Apr-13 05:30N 41°42' E 004°58'7518.4
2015-Apr-13 01:26N 42°32' E 006°13'1618.1
2015-Apr-13 00:32N 42°43' E 006°29'1818.6
2015-Apr-12 23:33N 42°55' E 006°48'1918.6
2015-Apr-12 22:33N 43°08' E 007°07'2619.1
2015-Apr-12 21:11N 43°25' E 007°33'5418.6
2015-Apr-12 18:16N 44°01' E 008°29'1318.5
2015-Apr-12 17:33N 44°10' E 008°43'1616.0
2015-Apr-12 16:33N 44°23' E 008°57'2 2.1
2015-Apr-12 15:32N 44°25' E 008°55'0 0.0
2015-Apr-12 14:32N 44°25' E 008°55'0 0.0
2015-Apr-12 13:08N 44°25' E 008°55'0 0.0
2015-Apr-12 11:32N 44°25' E 008°55'0 0.0
2015-Apr-12 10:32N 44°25' E 008°55'0 0.0
2015-Apr-12 09:32N 44°25' E 008°55'0 0.0
2015-Apr-12 08:20N 44°25' E 008°55'0 0.0
2015-Apr-12 07:26N 44°25' E 008°55'0 0.0
2015-Apr-12 06:24N 44°25' E 008°55'3 3.0
2015-Apr-12 05:32N 44°23' E 008°57'2713.5
2015-Apr-12 03:34N 43°59' E 009°15'1514.6
2015-Apr-12 02:33N 43°46' E 009°24'1717.3
2015-Apr-12 01:33N 43°31' E 009°35'1818.3
2015-Apr-12 00:33N 43°16' E 009°50'376 8.5
2015-Apr-10 04:31N 39°16' E 003°25'1617.1
2015-Apr-10 03:33N 39°09' E 003°06'1313.2
2015-Apr-10 02:32N 39°12' E 002°49'1717.6
2015-Apr-10 01:33N 39°28' E 002°41'6 5.9
2015-Apr-10 00:32N 39°33' E 002°38'0 0.0
2015-Apr-09 23:32N 39°33' E 002°38'0 0.0
2015-Apr-09 22:32N 39°33' E 002°38'0 0.0
2015-Apr-09 21:32N 39°33' E 002°38'0 0.0
2015-Apr-09 20:32N 39°33' E 002°38'0 0.0
2015-Apr-09 19:32N 39°33' E 002°38'0 0.0
2015-Apr-09 18:32N 39°33' E 002°38'0 0.0
2015-Apr-09 17:32N 39°33' E 002°38'0 0.0
2015-Apr-09 16:32N 39°33' E 002°38'0 0.0
2015-Apr-09 15:32N 39°33' E 002°38'0 0.0
2015-Apr-09 14:32N 39°33' E 002°38'0 0.0
2015-Apr-09 13:32N 39°33' E 002°38'0 0.0
2015-Apr-09 12:32N 39°33' E 002°38'0 0.0
2015-Apr-09 11:32N 39°33' E 002°38'0 0.0
2015-Apr-09 10:32N 39°33' E 002°38'0 0.0
2015-Apr-09 09:32N 39°33' E 002°38'0 0.0
2015-Apr-09 08:32N 39°33' E 002°38'0 0.0
2015-Apr-09 07:29N 39°33' E 002°38'0 0.0
2015-Apr-09 06:33N 39°33' E 002°38'6 6.0
2015-Apr-09 05:33N 39°28' E 002°36'1414.4
2015-Apr-09 04:34N 39°22' E 002°19'1717.3
2015-Apr-09 03:33N 39°18' E 001°57'1817.6
2015-Apr-09 02:33N 39°12' E 001°35'11217.9
2015-Apr-08 20:16N 37°57' W 000°11'1317.9
2015-Apr-08 19:33N 37°46' W 000°20'1717.5
2015-Apr-08 18:33N 37°32' W 000°33'1817.5
2015-Apr-08 17:33N 37°20' W 000°50'22914.3
2015-Apr-08 01:34N 36°03' W 005°18'  
Track history (hours):
 
Tides and Currents Weather Stations Pressure Air Temp Water Temp Dewpoint Dewpoint Depression Visibility Wind Speed Wind Dir Waves Ship Positions

MSC Sinfonia

Last reported at 2015-Apr-17 22:11 UTC. Time now 2015-Apr-19 09:20 UTC.
Position N 36°08' W 008°51'.

Length 251 m; draft 6.8 m.

Type: Passenger vessel. MMSI: 356715971.

Date/timePositionNaut miles runAvg speedWind from/ knotsBaromVisibWave heightAir tempDewpointWater temp
2015-Apr-17 22:11N 36°08' W 008°51'1320.6
2015-Apr-17 21:33N 36°19' W 008°58'12419.5
2015-Apr-17 15:11N 38°16' W 009°50'1320.4
2015-Apr-17 14:34N 38°25' W 009°38'2019.8
2015-Apr-17 13:32N 38°39' W 009°20'1010.4
2015-Apr-17 12:33N 38°42' W 009°07'0 0.2
2015-Apr-17 11:28N 38°43' W 009°08'0 0.0
2015-Apr-17 10:31N 38°43' W 009°08'0 0.0
2015-Apr-17 09:31N 38°43' W 009°08'0 0.0
2015-Apr-17 08:31N 38°43' W 009°08'0 0.0
2015-Apr-17 07:31N 38°43' W 009°08'0 0.0
2015-Apr-17 06:31N 38°43' W 009°08'0 0.0
2015-Apr-17 05:31N 38°43' W 009°08'0 0.0
2015-Apr-17 04:31N 38°43' W 009°08'0 0.0
2015-Apr-17 03:28N 38°43' W 009°08'0 0.0
2015-Apr-17 02:31N 38°43' W 009°08'0 0.0
2015-Apr-17 01:31N 38°43' W 009°08'0 0.0
2015-Apr-17 00:31N 38°43' W 009°08'0 0.0
2015-Apr-16 23:28N 38°43' W 009°08'0 0.0
2015-Apr-16 22:31N 38°43' W 009°08'0 0.0
2015-Apr-16 21:31N 38°43' W 009°08'0 0.0
2015-Apr-16 20:31N 38°43' W 009°08'0 0.0
2015-Apr-16 19:31N 38°43' W 009°08'0 0.0
2015-Apr-16 18:31N 38°43' W 009°08'0 0.0
2015-Apr-16 17:31N 38°43' W 009°08'0 0.0
2015-Apr-16 16:31N 38°43' W 009°08'0 0.0
2015-Apr-16 15:31N 38°43' W 009°08'0 0.0
2015-Apr-16 14:31N 38°43' W 009°08'0 0.0
2015-Apr-16 13:25N 38°43' W 009°08'0 0.0
2015-Apr-16 12:31N 38°43' W 009°08'0 0.0
2015-Apr-16 11:31N 38°43' W 009°08'0 0.0
2015-Apr-16 10:31N 38°43' W 009°08'0 0.0
2015-Apr-16 09:31N 38°43' W 009°08'0 0.0
2015-Apr-16 08:31N 38°43' W 009°08'0 0.0
2015-Apr-16 07:31N 38°43' W 009°08'6 5.8
2015-Apr-16 06:33N 38°41' W 009°14'1313.2
2015-Apr-16 05:33N 38°30' W 009°23'1817.7
2015-Apr-16 04:32N 38°12' W 009°22'1717.1
2015-Apr-16 03:33N 37°55' W 009°22'220 9.4
2015-Apr-15 04:15N 35°60' W 005°27'913.4
2015-Apr-15 03:33N 36°02' W 005°16'22615.7
2015-Apr-14 13:07N 37°36' W 000°59'0 0.0
2015-Apr-14 12:29N 37°36' W 000°59'0 0.0
2015-Apr-14 05:33N 37°36' W 000°59'4 4.1
2015-Apr-14 04:28N 37°31' W 000°59'1112.0
2015-Apr-14 03:33N 37°32' W 000°45'1211.9
2015-Apr-14 02:33N 37°37' W 000°31'1313.0
2015-Apr-14 01:32N 37°47' W 000°20'1713.4
2015-Apr-14 00:17N 37°59' W 000°05'1313.2
2015-Apr-13 23:17N 38°09' E 000°06'1013.8
2015-Apr-13 22:33N 38°16' E 000°14'1714.7
2015-Apr-13 21:23N 38°29' E 000°29'8516.5
2015-Apr-13 16:15N 39°31' E 001°44'1918.5
2015-Apr-13 15:14N 39°43' E 002°03'1218.0
2015-Apr-13 14:33N 39°51' E 002°14'1818.0
2015-Apr-13 13:33N 40°03' E 002°32'1818.3
2015-Apr-13 12:33N 40°16' E 002°50'1918.5
2015-Apr-13 11:33N 40°28' E 003°08'1818.3
2015-Apr-13 10:33N 40°40' E 003°26'2518.5
2015-Apr-13 09:11N 40°57' E 003°51'3218.2
2015-Apr-13 07:24N 41°19' E 004°23'2822.6
2015-Apr-13 06:09N 41°38' E 004°51'711.0
2015-Apr-13 05:30N 41°42' E 004°58'7518.4
2015-Apr-13 01:26N 42°32' E 006°13'1618.1
2015-Apr-13 00:32N 42°43' E 006°29'1818.6
2015-Apr-12 23:33N 42°55' E 006°48'1918.6
2015-Apr-12 22:33N 43°08' E 007°07'2619.1
2015-Apr-12 21:11N 43°25' E 007°33'5418.6
2015-Apr-12 18:16N 44°01' E 008°29'1318.5
2015-Apr-12 17:33N 44°10' E 008°43'1616.0
2015-Apr-12 16:33N 44°23' E 008°57'2 2.1
2015-Apr-12 15:32N 44°25' E 008°55'0 0.0
2015-Apr-12 14:32N 44°25' E 008°55'0 0.0
2015-Apr-12 13:08N 44°25' E 008°55'0 0.0
2015-Apr-12 11:32N 44°25' E 008°55'0 0.0
2015-Apr-12 10:32N 44°25' E 008°55'0 0.0
2015-Apr-12 09:32N 44°25' E 008°55'0 0.0
2015-Apr-12 08:20N 44°25' E 008°55'0 0.0
2015-Apr-12 07:26N 44°25' E 008°55'0 0.0
2015-Apr-12 06:24N 44°25' E 008°55'3 3.0
2015-Apr-12 05:32N 44°23' E 008°57'2713.5
2015-Apr-12 03:34N 43°59' E 009°15'1514.6
2015-Apr-12 02:33N 43°46' E 009°24'1717.3
2015-Apr-12 01:33N 43°31' E 009°35'1818.3
2015-Apr-12 00:33N 43°16' E 009°50'376 8.5
2015-Apr-10 04:31N 39°16' E 003°25'1617.1
2015-Apr-10 03:33N 39°09' E 003°06'1313.2
2015-Apr-10 02:32N 39°12' E 002°49'1717.6
2015-Apr-10 01:33N 39°28' E 002°41'6 5.9
2015-Apr-10 00:32N 39°33' E 002°38'0 0.0
2015-Apr-09 23:32N 39°33' E 002°38'0 0.0
2015-Apr-09 22:32N 39°33' E 002°38'0 0.0
2015-Apr-09 21:32N 39°33' E 002°38'0 0.0
2015-Apr-09 20:32N 39°33' E 002°38'0 0.0
2015-Apr-09 19:32N 39°33' E 002°38'0 0.0
2015-Apr-09 18:32N 39°33' E 002°38'0 0.0
2015-Apr-09 17:32N 39°33' E 002°38'0 0.0
2015-Apr-09 16:32N 39°33' E 002°38'0 0.0
2015-Apr-09 15:32N 39°33' E 002°38'0 0.0
2015-Apr-09 14:32N 39°33' E 002°38'0 0.0
2015-Apr-09 13:32N 39°33' E 002°38'0 0.0
2015-Apr-09 12:32N 39°33' E 002°38'0 0.0
2015-Apr-09 11:32N 39°33' E 002°38'0 0.0
2015-Apr-09 10:32N 39°33' E 002°38'0 0.0
2015-Apr-09 09:32N 39°33' E 002°38'0 0.0
2015-Apr-09 08:32N 39°33' E 002°38'0 0.0
2015-Apr-09 07:29N 39°33' E 002°38'0 0.0
2015-Apr-09 06:33N 39°33' E 002°38'6 6.0
2015-Apr-09 05:33N 39°28' E 002°36'1414.4
2015-Apr-09 04:34N 39°22' E 002°19'1717.3
2015-Apr-09 03:33N 39°18' E 001°57'1817.6
2015-Apr-09 02:33N 39°12' E 001°35'11217.9
2015-Apr-08 20:16N 37°57' W 000°11'1317.9
2015-Apr-08 19:33N 37°46' W 000°20'1717.5
2015-Apr-08 18:33N 37°32' W 000°33'1817.5
2015-Apr-08 17:33N 37°20' W 000°50'22914.3
2015-Apr-08 01:34N 36°03' W 005°18'  

Dump ship's entire track history